Flight Track Log - Related Links

Times and Time Zones

All times are in EDT time to prevent confusion due to time zone crossing. See the SWA8500 flight status page for this flight to view local times or setup timezone preferences in your user account.

Time Position Orientation Groundspeed Altitude Reporting Facility
EDT Latitude Longitude Course Direction KTS MPH feet Rate Location/Type
Fri 06:22:35 AM 42.9650 -83.6672 144° Southeast 212 244 4,600  Level Cleveland Center
Fri 06:23:36 AM 42.9939 -83.5978 60° Northeast 229 264 9,200 3,868 Climbing Cleveland Center
Fri 06:24:36 AM 43.0364 -83.4919 61° Northeast 245 282 12,400 3,850 Climbing Cleveland Center
Fri 06:25:36 AM 43.0558 -83.3706 78° East 292 336 16,900 4,400 Climbing Cleveland Center
Fri 06:26:36 AM 42.9786 -83.2906 143° Southeast 278 320 21,200 3,900 Climbing Cleveland Center
Fri 06:27:00 AM 42.6254 -83.0374 144° Southeast  Level Estimated
Fri 06:27:36 AM 42.8950 -83.2103 145° Southeast 307 353 24,700  Level Cleveland Center
Fri 06:28:36 AM 42.8008 -83.1300 148° Southeast 352 405 27,600 2,874 Climbing Cleveland Center
Fri 06:29:35 AM 42.7047 -83.0469 148° Southeast 404 465 30,400 2,600 Climbing Cleveland Center
Fri 06:30:36 AM 42.6044 -82.9556 146° Southeast 425 489 32,800 1,587 Climbing Cleveland Center
Fri 06:31:36 AM 42.5019 -82.8700 148° Southeast 425 489 33,600 605 Climbing Cleveland Center
Fri 06:32:35 AM 42.4139 -82.7936 147° Southeast 425 489 34,000 202 Climbing Cleveland Center
Fri 06:33:35 AM 42.3114 -82.7058 148° Southeast 425 489 34,000 545 Level Cleveland Center
Fri 06:34:36 AM 42.2128 -82.6211 148° Southeast 425 489 35,100 992 Climbing Cleveland Center
Fri 06:35:36 AM 42.1164 -82.5342 146° Southeast 425 489 36,000 454 Climbing Cleveland Center
Fri 06:36:35 AM 42.0156 -82.4528 149° Southeast 425 489 36,000  Level Cleveland Center
Fri 06:37:36 AM 41.9147 -82.3689 148° Southeast 425 489 36,000 496 Level Cleveland Center
Fri 06:38:36 AM 41.8158 -82.2856 148° Southeast 425 489 37,000 1,450 Climbing Cleveland Center
Fri 06:39:36 AM 41.7150 -82.2022 148° Southeast 425 489 38,900 1,000 Climbing Cleveland Center
Fri 06:40:36 AM 41.6183 -82.1192 147° Southeast 420 483 39,000 50 Climbing Cleveland Center
Fri 06:41:36 AM 41.5192 -82.0392 149° Southeast 420 483 39,000  Level Cleveland Center
Fri 06:42:36 AM 41.4181 -81.9536 148° Southeast 426 490 39,000  Level Cleveland Center
Fri 06:43:36 AM 41.3128 -81.8603 146° Southeast 426 490 39,000  Level Cleveland Center
Fri 06:44:36 AM 41.2136 -81.7783 148° Southeast 426 490 39,000  Level Cleveland Center
Fri 06:45:36 AM 41.1186 -81.7078 151° Southeast 426 490 39,000  Level Cleveland Center
Fri 06:46:36 AM 41.0192 -81.6233 147° Southeast 426 490 39,000  Level Cleveland Center
Fri 06:47:36 AM 40.9200 -81.5422 148° Southeast 420 483 39,000  Level Cleveland Center
Fri 06:48:36 AM 40.8183 -81.4611 149° Southeast 420 483 39,000  Level Cleveland Center
Fri 06:49:36 AM 40.7086 -81.3719 148° Southeast 426 490 39,000  Level Cleveland Center
Fri 06:50:36 AM 40.6069 -81.2886 148° Southeast 426 490 39,000  Level Cleveland Center
Fri 06:51:36 AM 40.5117 -81.2031 146° Southeast 426 490 39,000  Level Cleveland Center
Fri 06:52:36 AM 40.4350 -81.0769 129° Southeast 426 490 39,000  Level Cleveland Center
Fri 06:53:36 AM 40.3667 -80.9508 125° Southeast 426 490 39,000  Level Cleveland Center
Fri 06:54:36 AM 40.2961 -80.8200 125° Southeast 437 503 39,000  Level Cleveland Center
Fri 06:55:36 AM 40.2256 -80.6919 126° Southeast 437 503 39,000 -200 Level Cleveland Center
Fri 06:56:36 AM 40.1608 -80.5750 126° Southeast 437 503 38,600 -550 Descending Cleveland Center
Fri 06:57:36 AM 40.0900 -80.4447 125° Southeast 437 503 37,900 -850 Descending Cleveland Center
Fri 06:58:36 AM 40.0189 -80.3175 126° Southeast 431 496 36,900 -1,000 Descending Cleveland Center
Fri 06:59:36 AM 39.9519 -80.1958 126° Southeast 431 496 35,900 -1,100 Descending Cleveland Center
Fri 07:00:36 AM 39.8806 -80.0717 127° Southeast 431 496 34,700 -1,550 Descending Cleveland Center
Fri 07:01:36 AM 39.8381 -79.9261 111° Southeast 413 475 32,800 -1,900 Descending Cleveland Center
Fri 07:02:36 AM 39.8081 -79.7750 104° East 425 489 30,900 -1,900 Descending Cleveland Center
Fri 07:03:36 AM 39.7733 -79.6161 106° East 438 504 29,000 -1,958 Descending Cleveland Center
Fri 07:04:11 AM 39.7558 -79.5242 104° East 443 510 27,800 -1,958 Descending Washington Center
Fri 07:05:11 AM 39.7233 -79.3714 105° East 438 504 25,900 -1,388 Descending Washington Center
Fri 07:06:12 AM 39.6903 -79.2186 106° East 438 504 25,000 -443 Descending Washington Center
Fri 07:07:13 AM 39.6592 -79.0742 106° East 422 486 25,000 -559 Level Washington Center
Fri 07:08:10 AM 39.6242 -78.9161 106° East 417 480 23,900 -1,068 Descending Washington Center
Fri 07:09:11 AM 39.5925 -78.7747 106° East 417 480 22,900 -992 Descending Washington Center
Fri 07:10:11 AM 39.5628 -78.6361 106° East 404 465 21,900 -984 Descending Washington Center
Fri 07:11:13 AM 39.5325 -78.5056 107° East 393 452 20,900 -1,150 Descending Washington Center
Fri 07:12:11 AM 39.5025 -78.3700 106° East 388 447 19,600 -1,729 Descending Washington Center
Fri 07:13:11 AM 39.4761 -78.2478 106° East 377 434 17,500 -2,281 Descending Washington Center
Fri 07:14:12 AM 39.4494 -78.1286 106° East 356 410 15,000 -1,240 Descending Washington Center
Fri 07:15:12 AM 39.4331 -78.0072 100° East 344 396 15,000  Level Washington Center
Fri 07:16:13 AM 39.4356 -77.8864 88° East 339 390 15,000  Level Washington Center
Fri 07:17:10 AM 39.4358 -77.7628 90° East 334 384 15,000  Level Washington Center
Fri 07:18:11 AM 39.4378 -77.6444 89° East 328 377 15,000 -942 Level Washington Center
Fri 07:19:11 AM 39.4419 -77.5292 87° East 328 377 13,100 -1,916 Descending Washington Center
Fri 07:20:10 AM 39.4436 -77.4136 89° East 328 377 11,200 -1,340 Descending Washington Center
Fri 07:20:45 AM 39.4500 -77.3500 83° East 292 336 11,000 -126 Descending Potomac TRACON
Fri 07:21:45 AM 39.4667 -77.2667 75° East 270 311 11,000 -300 Level Potomac TRACON
Fri 07:22:45 AM 39.4667 -77.1667 90° East 268 308 10,400 -1,300 Descending Potomac TRACON
Fri 07:23:45 AM 39.4500 -77.0667 102° East 276 318 8,400 -1,789 Descending Potomac TRACON
Fri 07:24:39 AM 39.4333 -76.9833 104° East 264 304 7,000 -1,611 Descending Potomac TRACON
Fri 07:25:33 AM 39.4333 -76.9000 90° East 257 296 5,500 -1,096 Descending Potomac TRACON
Fri 07:26:34 AM 39.4167 -76.8167 104° East 229 264 4,900 -730 Descending Potomac TRACON
Fri 07:27:28 AM 39.3667 -76.8333 194° South 211 243 4,100 -526 Descending Potomac TRACON
Fri 07:28:28 AM 39.3000 -76.8500 191° South 202 232 3,900 -200 Descending Potomac TRACON
Fri 07:29:28 AM 39.2500 -76.8333 166° South 173 199 3,700 -450 Descending Potomac TRACON
Fri 07:30:28 AM 39.2167 -76.8167 159° South 129 148 3,000 -722 Descending Potomac TRACON
Fri 07:31:16 AM 39.2000 -76.8000 142° Southeast 111 128 2,400 -947 Descending Potomac TRACON
Fri 07:32:22 AM 39.1833 -76.7500 113° Southeast 115 132 1,200 -857 Descending Potomac TRACON
Fri 07:33:22 AM 39.1833 -76.7167 90° East 114 131 600 -600 Descending Potomac TRACON
Fri 07:35:00 AM 39.1667 -76.6667 142° Southeast  Level FlightAware Approximate
Fri 07:42:00 AM 39.1754 -76.6683 142° Southeast  Level Estimated
Fri 07:43:00 AM 39.1754 -76.6683 142° Southeast  Level Estimated

Login

Don't have an account? Register now (free) for customized features, flight alerts, and more!